sensor_id;sensor_type;location;lat;lon;timestamp;temperature;humidity
15409;DHT22;7803;48.130;13.788;2023-04-28T00:02:43;23.60;75.10
15409;DHT22;7803;48.130;13.788;2023-04-28T00:05:48;23.60;75.00
15409;DHT22;7803;48.130;13.788;2023-04-28T00:08:50;23.60;75.10
15409;DHT22;7803;48.130;13.788;2023-04-28T00:11:52;23.50;75.00
15409;DHT22;7803;48.130;13.788;2023-04-28T00:14:55;23.50;75.00
15409;DHT22;7803;48.130;13.788;2023-04-28T00:17:57;23.50;75.00
15409;DHT22;7803;48.130;13.788;2023-04-28T00:20:59;23.50;75.00
15409;DHT22;7803;48.130;13.788;2023-04-28T00:24:01;23.50;74.90
15409;DHT22;7803;48.130;13.788;2023-04-28T00:27:03;23.50;74.90
15409;DHT22;7803;48.130;13.788;2023-04-28T00:30:08;23.50;74.90
15409;DHT22;7803;48.130;13.788;2023-04-28T00:33:10;23.50;74.80
15409;DHT22;7803;48.130;13.788;2023-04-28T00:36:13;23.40;74.60
15409;DHT22;7803;48.130;13.788;2023-04-28T00:39:15;23.40;74.70
15409;DHT22;7803;48.130;13.788;2023-04-28T00:42:18;23.40;74.60
15409;DHT22;7803;48.130;13.788;2023-04-28T00:45:21;23.40;74.50
15409;DHT22;7803;48.130;13.788;2023-04-28T00:48:23;23.40;74.50
15409;DHT22;7803;48.130;13.788;2023-04-28T00:51:25;23.40;75.40
15409;DHT22;7803;48.130;13.788;2023-04-28T00:54:28;23.40;74.50
15409;DHT22;7803;48.130;13.788;2023-04-28T00:57:30;23.40;74.50
15409;DHT22;7803;48.130;13.788;2023-04-28T01:00:34;23.40;74.50
15409;DHT22;7803;48.130;13.788;2023-04-28T01:03:38;23.40;74.40
15409;DHT22;7803;48.130;13.788;2023-04-28T01:06:41;23.40;74.40
15409;DHT22;7803;48.130;13.788;2023-04-28T01:09:43;23.30;74.20
15409;DHT22;7803;48.130;13.788;2023-04-28T01:12:47;23.40;74.20
15409;DHT22;7803;48.130;13.788;2023-04-28T01:15:50;23.40;74.20
15409;DHT22;7803;48.130;13.788;2023-04-28T01:18:53;23.40;74.20
15409;DHT22;7803;48.130;13.788;2023-04-28T01:21:55;23.30;74.10
15409;DHT22;7803;48.130;13.788;2023-04-28T01:24:58;23.30;74.00
15409;DHT22;7803;48.130;13.788;2023-04-28T01:28:00;23.30;74.20
15409;DHT22;7803;48.130;13.788;2023-04-28T01:31:02;23.30;74.10
15409;DHT22;7803;48.130;13.788;2023-04-28T01:34:04;23.30;74.10
15409;DHT22;7803;48.130;13.788;2023-04-28T01:37:07;23.30;74.10
15409;DHT22;7803;48.130;13.788;2023-04-28T01:40:11;23.30;74.00
15409;DHT22;7803;48.130;13.788;2023-04-28T01:43:13;23.30;74.00
15409;DHT22;7803;48.130;13.788;2023-04-28T01:46:16;23.30;74.00
15409;DHT22;7803;48.130;13.788;2023-04-28T01:49:17;23.30;73.90
15409;DHT22;7803;48.130;13.788;2023-04-28T01:52:19;23.30;73.80
15409;DHT22;7803;48.130;13.788;2023-04-28T01:55:25;23.30;73.90
15409;DHT22;7803;48.130;13.788;2023-04-28T01:58:27;23.20;73.80
15409;DHT22;7803;48.130;13.788;2023-04-28T02:01:29;23.20;73.80
15409;DHT22;7803;48.130;13.788;2023-04-28T02:04:31;23.30;73.80
15409;DHT22;7803;48.130;13.788;2023-04-28T02:07:33;23.30;73.80
15409;DHT22;7803;48.130;13.788;2023-04-28T02:10:36;23.20;73.70
15409;DHT22;7803;48.130;13.788;2023-04-28T02:13:38;23.20;73.70
15409;DHT22;7803;48.130;13.788;2023-04-28T02:16:40;23.20;73.10
15409;DHT22;7803;48.130;13.788;2023-04-28T02:19:42;23.30;72.00
15409;DHT22;7803;48.130;13.788;2023-04-28T02:22:44;23.20;71.90
15409;DHT22;7803;48.130;13.788;2023-04-28T02:25:47;23.20;72.30
15409;DHT22;7803;48.130;13.788;2023-04-28T02:28:49;23.20;72.60
15409;DHT22;7803;48.130;13.788;2023-04-28T02:31:51;23.20;72.70
15409;DHT22;7803;48.130;13.788;2023-04-28T02:34:54;23.20;72.80
15409;DHT22;7803;48.130;13.788;2023-04-28T02:37:56;23.20;72.80
15409;DHT22;7803;48.130;13.788;2023-04-28T02:41:00;23.20;72.90
15409;DHT22;7803;48.130;13.788;2023-04-28T02:44:02;23.10;72.90
15409;DHT22;7803;48.130;13.788;2023-04-28T02:47:04;23.10;72.90
15409;DHT22;7803;48.130;13.788;2023-04-28T02:50:07;23.10;73.00
15409;DHT22;7803;48.130;13.788;2023-04-28T02:53:09;23.10;73.00
15409;DHT22;7803;48.130;13.788;2023-04-28T02:56:13;23.10;73.00
15409;DHT22;7803;48.130;13.788;2023-04-28T02:59:15;23.10;73.00
15409;DHT22;7803;48.130;13.788;2023-04-28T03:02:17;23.10;73.00
15409;DHT22;7803;48.130;13.788;2023-04-28T03:05:20;23.10;73.10
15409;DHT22;7803;48.130;13.788;2023-04-28T03:08:22;23.10;73.00
15409;DHT22;7803;48.130;13.788;2023-04-28T03:11:25;23.10;73.20
15409;DHT22;7803;48.130;13.788;2023-04-28T03:14:27;23.10;73.20
15409;DHT22;7803;48.130;13.788;2023-04-28T03:17:30;23.10;73.20
15409;DHT22;7803;48.130;13.788;2023-04-28T03:20:32;23.10;73.20
15409;DHT22;7803;48.130;13.788;2023-04-28T03:23:34;23.10;73.00
15409;DHT22;7803;48.130;13.788;2023-04-28T03:26:37;23.10;72.90
15409;DHT22;7803;48.130;13.788;2023-04-28T03:29:40;23.00;72.80
15409;DHT22;7803;48.130;13.788;2023-04-28T03:32:42;23.10;72.80
15409;DHT22;7803;48.130;13.788;2023-04-28T03:35:44;23.10;72.80
15409;DHT22;7803;48.130;13.788;2023-04-28T03:38:46;23.10;72.80
15409;DHT22;7803;48.130;13.788;2023-04-28T03:41:49;23.10;72.80
15409;DHT22;7803;48.130;13.788;2023-04-28T03:44:51;23.10;72.70
15409;DHT22;7803;48.130;13.788;2023-04-28T03:47:53;23.20;72.80
15409;DHT22;7803;48.130;13.788;2023-04-28T03:50:55;23.20;72.80
15409;DHT22;7803;48.130;13.788;2023-04-28T03:53:57;23.20;72.70
15409;DHT22;7803;48.130;13.788;2023-04-28T03:57:00;23.30;72.70
15409;DHT22;7803;48.130;13.788;2023-04-28T04:00:05;23.30;72.60
15409;DHT22;7803;48.130;13.788;2023-04-28T04:03:07;23.30;72.60
15409;DHT22;7803;48.130;13.788;2023-04-28T04:06:09;23.30;73.30
15409;DHT22;7803;48.130;13.788;2023-04-28T04:09:11;23.30;72.40
15409;DHT22;7803;48.130;13.788;2023-04-28T04:12:15;23.40;72.50
15409;DHT22;7803;48.130;13.788;2023-04-28T04:15:17;23.40;72.30
15409;DHT22;7803;48.130;13.788;2023-04-28T04:18:19;23.40;72.30
15409;DHT22;7803;48.130;13.788;2023-04-28T04:21:21;23.40;72.30
15409;DHT22;7803;48.130;13.788;2023-04-28T04:24:23;23.50;72.20
15409;DHT22;7803;48.130;13.788;2023-04-28T04:27:26;23.50;72.20
15409;DHT22;7803;48.130;13.788;2023-04-28T04:30:28;23.40;72.00
15409;DHT22;7803;48.130;13.788;2023-04-28T04:33:30;23.50;72.20
15409;DHT22;7803;48.130;13.788;2023-04-28T04:36:34;23.50;72.10
15409;DHT22;7803;48.130;13.788;2023-04-28T04:39:36;23.50;72.20
15409;DHT22;7803;48.130;13.788;2023-04-28T04:42:39;23.50;72.10
15409;DHT22;7803;48.130;13.788;2023-04-28T04:45:41;23.50;72.10
15409;DHT22;7803;48.130;13.788;2023-04-28T04:48:43;23.50;72.10
15409;DHT22;7803;48.130;13.788;2023-04-28T04:51:45;23.50;72.10
15409;DHT22;7803;48.130;13.788;2023-04-28T04:54:47;23.50;72.10
15409;DHT22;7803;48.130;13.788;2023-04-28T04:57:50;23.50;72.10
15409;DHT22;7803;48.130;13.788;2023-04-28T05:00:52;23.50;72.00
15409;DHT22;7803;48.130;13.788;2023-04-28T05:03:57;23.50;72.10
15409;DHT22;7803;48.130;13.788;2023-04-28T05:06:59;23.50;72.00
15409;DHT22;7803;48.130;13.788;2023-04-28T05:10:01;23.50;72.20
15409;DHT22;7803;48.130;13.788;2023-04-28T05:13:05;23.50;72.50
15409;DHT22;7803;48.130;13.788;2023-04-28T05:16:07;23.50;72.60
15409;DHT22;7803;48.130;13.788;2023-04-28T05:19:09;23.60;72.60
15409;DHT22;7803;48.130;13.788;2023-04-28T05:22:11;23.60;72.50
15409;DHT22;7803;48.130;13.788;2023-04-28T05:25:13;23.60;72.50
15409;DHT22;7803;48.130;13.788;2023-04-28T05:28:17;23.70;72.50
15409;DHT22;7803;48.130;13.788;2023-04-28T05:31:19;23.70;72.30
15409;DHT22;7803;48.130;13.788;2023-04-28T05:34:21;23.70;72.40
15409;DHT22;7803;48.130;13.788;2023-04-28T05:37:23;23.70;72.30
15409;DHT22;7803;48.130;13.788;2023-04-28T05:40:25;23.80;72.40
15409;DHT22;7803;48.130;13.788;2023-04-28T05:43:29;23.80;72.30
15409;DHT22;7803;48.130;13.788;2023-04-28T05:46:31;23.80;72.10
15409;DHT22;7803;48.130;13.788;2023-04-28T05:49:33;23.80;72.00
15409;DHT22;7803;48.130;13.788;2023-04-28T05:52:35;23.80;72.00
15409;DHT22;7803;48.130;13.788;2023-04-28T05:55:37;23.80;72.90
15409;DHT22;7803;48.130;13.788;2023-04-28T05:58:41;23.80;72.00
15409;DHT22;7803;48.130;13.788;2023-04-28T06:01:44;23.80;71.80
15409;DHT22;7803;48.130;13.788;2023-04-28T06:04:46;23.80;71.90
15409;DHT22;7803;48.130;13.788;2023-04-28T06:07:48;23.90;71.80
15409;DHT22;7803;48.130;13.788;2023-04-28T06:10:50;23.90;71.80
15409;DHT22;7803;48.130;13.788;2023-04-28T06:13:53;23.80;71.70
15409;DHT22;7803;48.130;13.788;2023-04-28T06:16:55;23.90;72.70
15409;DHT22;7803;48.130;13.788;2023-04-28T06:19:57;23.90;71.80
15409;DHT22;7803;48.130;13.788;2023-04-28T06:22:59;23.90;71.70
15409;DHT22;7803;48.130;13.788;2023-04-28T06:26:02;23.90;71.70
15409;DHT22;7803;48.130;13.788;2023-04-28T06:29:06;23.90;71.70
15409;DHT22;7803;48.130;13.788;2023-04-28T06:32:08;23.90;71.70
15409;DHT22;7803;48.130;13.788;2023-04-28T06:35:10;23.90;71.70
15409;DHT22;7803;48.130;13.788;2023-04-28T06:38:12;23.90;71.70
15409;DHT22;7803;48.130;13.788;2023-04-28T06:41:14;23.90;72.00
15409;DHT22;7803;48.130;13.788;2023-04-28T06:44:17;23.90;71.60
15409;DHT22;7803;48.130;13.788;2023-04-28T06:47:19;23.90;71.60
15409;DHT22;7803;48.130;13.788;2023-04-28T06:50:21;24.00;71.70
15409;DHT22;7803;48.130;13.788;2023-04-28T06:53:23;23.90;71.60
15409;DHT22;7803;48.130;13.788;2023-04-28T06:56:26;24.00;71.70
15409;DHT22;7803;48.130;13.788;2023-04-28T06:59:30;23.90;71.60
15409;DHT22;7803;48.130;13.788;2023-04-28T07:02:32;24.00;71.60
15409;DHT22;7803;48.130;13.788;2023-04-28T07:05:34;24.00;71.60
15409;DHT22;7803;48.130;13.788;2023-04-28T07:08:36;24.00;71.60
15409;DHT22;7803;48.130;13.788;2023-04-28T07:11:38;24.00;71.60
15409;DHT22;7803;48.130;13.788;2023-04-28T07:14:42;24.00;71.70
15409;DHT22;7803;48.130;13.788;2023-04-28T07:17:44;24.00;71.60
15409;DHT22;7803;48.130;13.788;2023-04-28T07:20:46;24.00;71.60
15409;DHT22;7803;48.130;13.788;2023-04-28T07:23:48;24.00;71.60
15409;DHT22;7803;48.130;13.788;2023-04-28T07:26:50;24.00;71.60
15409;DHT22;7803;48.130;13.788;2023-04-28T07:29:53;24.00;71.60
15409;DHT22;7803;48.130;13.788;2023-04-28T07:32:55;24.00;71.60
15409;DHT22;7803;48.130;13.788;2023-04-28T07:35:58;24.00;71.60
15409;DHT22;7803;48.130;13.788;2023-04-28T07:39:00;24.00;71.50
15409;DHT22;7803;48.130;13.788;2023-04-28T07:42:02;24.00;71.60
15409;DHT22;7803;48.130;13.788;2023-04-28T07:45:06;24.00;71.50
15409;DHT22;7803;48.130;13.788;2023-04-28T07:48:09;24.00;71.50
15409;DHT22;7803;48.130;13.788;2023-04-28T07:51:11;24.10;71.60
15409;DHT22;7803;48.130;13.788;2023-04-28T07:54:13;24.10;71.60
15409;DHT22;7803;48.130;13.788;2023-04-28T07:57:15;24.10;71.60
15409;DHT22;7803;48.130;13.788;2023-04-28T08:00:19;24.00;71.50
15409;DHT22;7803;48.130;13.788;2023-04-28T08:03:21;24.10;71.50
15409;DHT22;7803;48.130;13.788;2023-04-28T08:06:23;24.10;71.50
15409;DHT22;7803;48.130;13.788;2023-04-28T08:09:25;24.10;71.50
15409;DHT22;7803;48.130;13.788;2023-04-28T08:12:27;24.10;71.90
15409;DHT22;7803;48.130;13.788;2023-04-28T08:15:30;24.10;71.50
15409;DHT22;7803;48.130;13.788;2023-04-28T08:18:32;24.10;71.50
15409;DHT22;7803;48.130;13.788;2023-04-28T08:21:34;24.10;71.50
15409;DHT22;7803;48.130;13.788;2023-04-28T08:24:36;24.10;71.50
15409;DHT22;7803;48.130;13.788;2023-04-28T08:27:38;24.10;71.50
15409;DHT22;7803;48.130;13.788;2023-04-28T08:30:41;24.10;71.50
15409;DHT22;7803;48.130;13.788;2023-04-28T08:33:43;24.10;71.50
15409;DHT22;7803;48.130;13.788;2023-04-28T08:36:48;24.10;71.50
15409;DHT22;7803;48.130;13.788;2023-04-28T08:39:50;24.10;71.50
15409;DHT22;7803;48.130;13.788;2023-04-28T08:42:59;24.10;71.30
15409;DHT22;7803;48.130;13.788;2023-04-28T08:46:06;24.20;71.40
15409;DHT22;7803;48.130;13.788;2023-04-28T08:49:13;24.10;71.40
15409;DHT22;7803;48.130;13.788;2023-04-28T08:52:16;24.20;71.40
15409;DHT22;7803;48.130;13.788;2023-04-28T08:55:19;24.10;71.40
15409;DHT22;7803;48.130;13.788;2023-04-28T08:58:22;24.10;71.40
15409;DHT22;7803;48.130;13.788;2023-04-28T09:01:26;24.20;71.50
15409;DHT22;7803;48.130;13.788;2023-04-28T09:04:28;24.10;71.40
15409;DHT22;7803;48.130;13.788;2023-04-28T09:07:30;24.20;71.50
15409;DHT22;7803;48.130;13.788;2023-04-28T09:10:32;24.10;71.50
15409;DHT22;7803;48.130;13.788;2023-04-28T09:13:34;24.10;71.60
15409;DHT22;7803;48.130;13.788;2023-04-28T09:16:43;24.20;71.30
15409;DHT22;7803;48.130;13.788;2023-04-28T09:19:44;24.20;71.60
15409;DHT22;7803;48.130;13.788;2023-04-28T09:22:47;24.20;71.90
15409;DHT22;7803;48.130;13.788;2023-04-28T09:25:59;24.20;71.90
15409;DHT22;7803;48.130;13.788;2023-04-28T09:29:11;24.20;71.30
15409;DHT22;7803;48.130;13.788;2023-04-28T09:32:15;24.20;70.90
15409;DHT22;7803;48.130;13.788;2023-04-28T09:35:38;24.20;71.00
15409;DHT22;7803;48.130;13.788;2023-04-28T09:38:43;24.20;71.20
15409;DHT22;7803;48.130;13.788;2023-04-28T09:41:45;24.30;71.40
15409;DHT22;7803;48.130;13.788;2023-04-28T09:44:52;24.20;71.30
15409;DHT22;7803;48.130;13.788;2023-04-28T09:48:08;24.30;71.40
15409;DHT22;7803;48.130;13.788;2023-04-28T09:51:11;24.20;71.40
15409;DHT22;7803;48.130;13.788;2023-04-28T09:54:13;24.20;71.40
15409;DHT22;7803;48.130;13.788;2023-04-28T09:57:17;24.20;71.50
15409;DHT22;7803;48.130;13.788;2023-04-28T10:00:19;24.20;71.50
15409;DHT22;7803;48.130;13.788;2023-04-28T10:03:24;24.20;71.50
15409;DHT22;7803;48.130;13.788;2023-04-28T10:06:27;24.20;71.50
15409;DHT22;7803;48.130;13.788;2023-04-28T10:09:31;24.20;71.10
15409;DHT22;7803;48.130;13.788;2023-04-28T10:12:34;24.30;71.60
15409;DHT22;7803;48.130;13.788;2023-04-28T10:15:38;24.20;71.60
15409;DHT22;7803;48.130;13.788;2023-04-28T10:18:44;24.20;71.60
15409;DHT22;7803;48.130;13.788;2023-04-28T10:21:55;24.20;71.70
15409;DHT22;7803;48.130;13.788;2023-04-28T10:25:22;24.20;71.70
15409;DHT22;7803;48.130;13.788;2023-04-28T10:28:26;24.30;71.80
15409;DHT22;7803;48.130;13.788;2023-04-28T10:31:28;24.20;71.80
15409;DHT22;7803;48.130;13.788;2023-04-28T10:34:31;24.20;71.10
15409;DHT22;7803;48.130;13.788;2023-04-28T10:38:03;24.10;68.80
15409;DHT22;7803;48.130;13.788;2023-04-28T10:41:30;24.10;67.40
15409;DHT22;7803;48.130;13.788;2023-04-28T10:44:41;24.00;66.70
15409;DHT22;7803;48.130;13.788;2023-04-28T10:47:59;24.00;67.10
15409;DHT22;7803;48.130;13.788;2023-04-28T10:51:29;24.00;66.20
15409;DHT22;7803;48.130;13.788;2023-04-28T10:54:31;23.90;66.00
15409;DHT22;7803;48.130;13.788;2023-04-28T10:57:33;23.90;66.00
15409;DHT22;7803;48.130;13.788;2023-04-28T11:00:37;23.90;66.00
15409;DHT22;7803;48.130;13.788;2023-04-28T11:03:47;23.80;66.20
15409;DHT22;7803;48.130;13.788;2023-04-28T11:07:10;23.70;66.40
15409;DHT22;7803;48.130;13.788;2023-04-28T11:10:13;23.70;66.30
15409;DHT22;7803;48.130;13.788;2023-04-28T11:13:24;23.70;66.20
15409;DHT22;7803;48.130;13.788;2023-04-28T11:16:26;23.70;66.30
15409;DHT22;7803;48.130;13.788;2023-04-28T11:19:30;23.60;67.20
15409;DHT22;7803;48.130;13.788;2023-04-28T11:22:34;23.60;66.60
15409;DHT22;7803;48.130;13.788;2023-04-28T11:25:54;23.60;67.40
15409;DHT22;7803;48.130;13.788;2023-04-28T11:28:57;23.60;66.70
15409;DHT22;7803;48.130;13.788;2023-04-28T11:31:59;23.50;66.80
15409;DHT22;7803;48.130;13.788;2023-04-28T11:35:01;23.50;66.90
15409;DHT22;7803;48.130;13.788;2023-04-28T11:38:10;23.50;67.00
15409;DHT22;7803;48.130;13.788;2023-04-28T11:41:12;23.40;66.90
15409;DHT22;7803;48.130;13.788;2023-04-28T11:44:15;23.40;67.10
15409;DHT22;7803;48.130;13.788;2023-04-28T11:47:27;23.40;67.10
15409;DHT22;7803;48.130;13.788;2023-04-28T11:50:37;23.40;67.20
15409;DHT22;7803;48.130;13.788;2023-04-28T11:53:44;23.30;67.20
15409;DHT22;7803;48.130;13.788;2023-04-28T11:56:46;23.30;67.40
15409;DHT22;7803;48.130;13.788;2023-04-28T11:59:49;23.30;67.60
15409;DHT22;7803;48.130;13.788;2023-04-28T12:02:51;23.30;67.70
15409;DHT22;7803;48.130;13.788;2023-04-28T12:05:53;23.30;68.10
15409;DHT22;7803;48.130;13.788;2023-04-28T12:08:56;23.30;68.50
15409;DHT22;7803;48.130;13.788;2023-04-28T12:12:05;23.30;68.90
15409;DHT22;7803;48.130;13.788;2023-04-28T12:15:08;23.30;69.50
15409;DHT22;7803;48.130;13.788;2023-04-28T12:18:10;23.30;69.60
15409;DHT22;7803;48.130;13.788;2023-04-28T12:21:20;23.30;69.90
15409;DHT22;7803;48.130;13.788;2023-04-28T12:24:23;23.40;70.50
15409;DHT22;7803;48.130;13.788;2023-04-28T12:27:26;23.40;70.80
15409;DHT22;7803;48.130;13.788;2023-04-28T12:30:30;23.40;71.00
15409;DHT22;7803;48.130;13.788;2023-04-28T12:33:32;23.40;71.00
15409;DHT22;7803;48.130;13.788;2023-04-28T12:36:37;23.40;71.20
15409;DHT22;7803;48.130;13.788;2023-04-28T12:39:40;23.40;71.10
15409;DHT22;7803;48.130;13.788;2023-04-28T12:42:43;23.50;71.40
15409;DHT22;7803;48.130;13.788;2023-04-28T12:45:45;23.40;71.90
15409;DHT22;7803;48.130;13.788;2023-04-28T12:48:47;23.50;72.80
15409;DHT22;7803;48.130;13.788;2023-04-28T12:51:49;23.50;76.10
15409;DHT22;7803;48.130;13.788;2023-04-28T12:54:53;23.60;75.00
15409;DHT22;7803;48.130;13.788;2023-04-28T12:57:55;23.60;74.50
15409;DHT22;7803;48.130;13.788;2023-04-28T13:00:57;23.60;74.50
15409;DHT22;7803;48.130;13.788;2023-04-28T13:03:59;23.60;74.70
15409;DHT22;7803;48.130;13.788;2023-04-28T13:07:01;23.70;74.90
15409;DHT22;7803;48.130;13.788;2023-04-28T13:10:05;23.60;74.70
15409;DHT22;7803;48.130;13.788;2023-04-28T13:13:08;23.60;74.50
15409;DHT22;7803;48.130;13.788;2023-04-28T13:16:11;23.70;74.70
15409;DHT22;7803;48.130;13.788;2023-04-28T13:19:13;23.70;74.60
15409;DHT22;7803;48.130;13.788;2023-04-28T13:22:17;23.70;74.70
15409;DHT22;7803;48.130;13.788;2023-04-28T13:25:20;23.60;74.60
15409;DHT22;7803;48.130;13.788;2023-04-28T13:28:22;23.70;74.60
15409;DHT22;7803;48.130;13.788;2023-04-28T13:31:24;23.70;74.70
15409;DHT22;7803;48.130;13.788;2023-04-28T13:34:26;23.70;74.60
15409;DHT22;7803;48.130;13.788;2023-04-28T13:37:28;23.70;74.60
15409;DHT22;7803;48.130;13.788;2023-04-28T13:40:33;23.70;74.50
15409;DHT22;7803;48.130;13.788;2023-04-28T13:43:35;23.70;74.50
15409;DHT22;7803;48.130;13.788;2023-04-28T13:46:37;23.70;74.50
15409;DHT22;7803;48.130;13.788;2023-04-28T13:49:39;23.70;74.50
15409;DHT22;7803;48.130;13.788;2023-04-28T13:52:41;23.70;74.50
15409;DHT22;7803;48.130;13.788;2023-04-28T13:55:45;23.70;74.50
15409;DHT22;7803;48.130;13.788;2023-04-28T13:58:47;23.70;74.50
15409;DHT22;7803;48.130;13.788;2023-04-28T14:01:49;23.70;74.40
15409;DHT22;7803;48.130;13.788;2023-04-28T14:04:51;23.70;74.40
15409;DHT22;7803;48.130;13.788;2023-04-28T14:07:53;23.70;74.30
15409;DHT22;7803;48.130;13.788;2023-04-28T14:10:57;23.70;74.30
15409;DHT22;7803;48.130;13.788;2023-04-28T14:13:59;23.70;74.30
15409;DHT22;7803;48.130;13.788;2023-04-28T14:17:01;23.70;74.20
15409;DHT22;7803;48.130;13.788;2023-04-28T14:20:05;23.70;74.20
15409;DHT22;7803;48.130;13.788;2023-04-28T14:23:07;23.70;74.30
15409;DHT22;7803;48.130;13.788;2023-04-28T14:26:11;23.70;74.20
15409;DHT22;7803;48.130;13.788;2023-04-28T14:29:13;23.70;74.20
15409;DHT22;7803;48.130;13.788;2023-04-28T14:32:16;23.70;74.20
15409;DHT22;7803;48.130;13.788;2023-04-28T14:35:20;23.70;74.20
15409;DHT22;7803;48.130;13.788;2023-04-28T14:38:22;23.70;74.20
15409;DHT22;7803;48.130;13.788;2023-04-28T14:41:26;23.70;74.20
15409;DHT22;7803;48.130;13.788;2023-04-28T14:44:28;23.70;74.20
15409;DHT22;7803;48.130;13.788;2023-04-28T14:47:30;23.70;74.10
15409;DHT22;7803;48.130;13.788;2023-04-28T14:50:32;23.70;74.00
15409;DHT22;7803;48.130;13.788;2023-04-28T14:53:34;23.70;74.00
15409;DHT22;7803;48.130;13.788;2023-04-28T14:56:38;23.70;74.00
15409;DHT22;7803;48.130;13.788;2023-04-28T14:59:40;23.70;74.00
15409;DHT22;7803;48.130;13.788;2023-04-28T15:02:42;23.70;74.00
15409;DHT22;7803;48.130;13.788;2023-04-28T15:05:44;23.70;74.00
15409;DHT22;7803;48.130;13.788;2023-04-28T15:08:46;23.70;74.00
15409;DHT22;7803;48.130;13.788;2023-04-28T15:11:50;23.70;73.90
15409;DHT22;7803;48.130;13.788;2023-04-28T15:14:52;23.70;73.80
15409;DHT22;7803;48.130;13.788;2023-04-28T15:17:54;23.70;73.80
15409;DHT22;7803;48.130;13.788;2023-04-28T15:21:00;23.70;73.80
15409;DHT22;7803;48.130;13.788;2023-04-28T15:24:02;23.70;73.80
15409;DHT22;7803;48.130;13.788;2023-04-28T15:27:06;23.70;73.70
15409;DHT22;7803;48.130;13.788;2023-04-28T15:30:09;23.70;73.80
15409;DHT22;7803;48.130;13.788;2023-04-28T15:33:11;23.70;73.50
15409;DHT22;7803;48.130;13.788;2023-04-28T15:36:16;23.70;73.30
15409;DHT22;7803;48.130;13.788;2023-04-28T15:39:19;23.80;74.00
15409;DHT22;7803;48.130;13.788;2023-04-28T15:42:23;23.80;73.50
15409;DHT22;7803;48.130;13.788;2023-04-28T15:45:25;23.80;74.00
15409;DHT22;7803;48.130;13.788;2023-04-28T15:48:27;23.80;74.20
15409;DHT22;7803;48.130;13.788;2023-04-28T15:51:29;23.90;74.40
15409;DHT22;7803;48.130;13.788;2023-04-28T15:54:31;23.90;74.40
15409;DHT22;7803;48.130;13.788;2023-04-28T15:57:35;23.90;74.60
15409;DHT22;7803;48.130;13.788;2023-04-28T16:00:37;23.90;74.50
15409;DHT22;7803;48.130;13.788;2023-04-28T16:03:40;23.90;73.10
15409;DHT22;7803;48.130;13.788;2023-04-28T16:06:42;23.90;73.40
15409;DHT22;7803;48.130;13.788;2023-04-28T16:09:44;23.90;74.70
15409;DHT22;7803;48.130;13.788;2023-04-28T16:12:47;23.90;76.40
15409;DHT22;7803;48.130;13.788;2023-04-28T16:15:51;23.90;77.10
15409;DHT22;7803;48.130;13.788;2023-04-28T16:18:53;24.00;77.60
15409;DHT22;7803;48.130;13.788;2023-04-28T16:21:55;24.00;77.10
15409;DHT22;7803;48.130;13.788;2023-04-28T16:24:58;24.00;78.10
15409;DHT22;7803;48.130;13.788;2023-04-28T16:28:04;24.00;78.90
15409;DHT22;7803;48.130;13.788;2023-04-28T16:31:09;24.10;81.00
15409;DHT22;7803;48.130;13.788;2023-04-28T16:38:02;24.10;83.30
15409;DHT22;7803;48.130;13.788;2023-04-28T16:41:04;24.10;84.20
15409;DHT22;7803;48.130;13.788;2023-04-28T16:44:08;24.10;84.80
15409;DHT22;7803;48.130;13.788;2023-04-28T16:47:10;24.10;85.00
15409;DHT22;7803;48.130;13.788;2023-04-28T16:50:13;24.10;85.10
15409;DHT22;7803;48.130;13.788;2023-04-28T16:53:16;24.10;90.60
15409;DHT22;7803;48.130;13.788;2023-04-28T16:56:18;24.20;93.80
15409;DHT22;7803;48.130;13.788;2023-04-28T16:59:21;24.30;91.50
15409;DHT22;7803;48.130;13.788;2023-04-28T17:02:26;24.40;86.90
15409;DHT22;7803;48.130;13.788;2023-04-28T17:05:28;24.50;84.40
15409;DHT22;7803;48.130;13.788;2023-04-28T17:08:30;24.50;83.60
15409;DHT22;7803;48.130;13.788;2023-04-28T17:11:32;24.50;90.40
15409;DHT22;7803;48.130;13.788;2023-04-28T17:14:38;24.60;95.80
15409;DHT22;7803;48.130;13.788;2023-04-28T17:17:41;24.60;94.60
15409;DHT22;7803;48.130;13.788;2023-04-28T17:20:43;24.70;86.90
15409;DHT22;7803;48.130;13.788;2023-04-28T17:23:45;24.70;84.20
15409;DHT22;7803;48.130;13.788;2023-04-28T17:26:47;24.70;83.10
15409;DHT22;7803;48.130;13.788;2023-04-28T17:29:51;24.70;84.30
15409;DHT22;7803;48.130;13.788;2023-04-28T17:32:53;24.80;90.00
15409;DHT22;7803;48.130;13.788;2023-04-28T17:35:55;24.80;87.70
15409;DHT22;7803;48.130;13.788;2023-04-28T17:38:57;24.90;90.30
15409;DHT22;7803;48.130;13.788;2023-04-28T17:41:59;24.90;88.10
15409;DHT22;7803;48.130;13.788;2023-04-28T17:45:05;24.90;86.90
15409;DHT22;7803;48.130;13.788;2023-04-28T17:48:08;24.90;84.50
15409;DHT22;7803;48.130;13.788;2023-04-28T17:51:10;24.80;83.60
15409;DHT22;7803;48.130;13.788;2023-04-28T17:54:12;24.80;83.20
15409;DHT22;7803;48.130;13.788;2023-04-28T17:57:14;24.70;83.00
15409;DHT22;7803;48.130;13.788;2023-04-28T18:00:19;24.70;83.20
15409;DHT22;7803;48.130;13.788;2023-04-28T18:03:21;24.60;83.20
15409;DHT22;7803;48.130;13.788;2023-04-28T18:06:23;24.60;83.20
15409;DHT22;7803;48.130;13.788;2023-04-28T18:09:26;24.60;83.20
15409;DHT22;7803;48.130;13.788;2023-04-28T18:12:30;24.50;83.30
15409;DHT22;7803;48.130;13.788;2023-04-28T18:15:34;24.50;82.30
15409;DHT22;7803;48.130;13.788;2023-04-28T18:18:36;24.50;81.50
15409;DHT22;7803;48.130;13.788;2023-04-28T18:21:38;24.40;81.10
15409;DHT22;7803;48.130;13.788;2023-04-28T18:24:40;24.50;81.00
15409;DHT22;7803;48.130;13.788;2023-04-28T18:27:42;24.40;80.90
15409;DHT22;7803;48.130;13.788;2023-04-28T18:30:47;24.40;80.70
15409;DHT22;7803;48.130;13.788;2023-04-28T18:33:47;24.40;80.80
15409;DHT22;7803;48.130;13.788;2023-04-28T18:36:50;24.40;81.50
15409;DHT22;7803;48.130;13.788;2023-04-28T18:39:54;24.50;81.50
15409;DHT22;7803;48.130;13.788;2023-04-28T18:42:57;24.40;82.50
15409;DHT22;7803;48.130;13.788;2023-04-28T18:46:00;24.50;81.60
15409;DHT22;7803;48.130;13.788;2023-04-28T18:49:06;24.50;80.30
15409;DHT22;7803;48.130;13.788;2023-04-28T18:52:10;24.50;79.90
15409;DHT22;7803;48.130;13.788;2023-04-28T18:55:15;24.50;79.40
15409;DHT22;7803;48.130;13.788;2023-04-28T18:58:17;24.50;79.80
15409;DHT22;7803;48.130;13.788;2023-04-28T19:01:21;24.50;85.10
15409;DHT22;7803;48.130;13.788;2023-04-28T19:04:24;24.40;82.10
15409;DHT22;7803;48.130;13.788;2023-04-28T19:07:27;24.40;80.00
15409;DHT22;7803;48.130;13.788;2023-04-28T19:10:29;24.40;87.50
15409;DHT22;7803;48.130;13.788;2023-04-28T19:13:32;24.40;83.80
15409;DHT22;7803;48.130;13.788;2023-04-28T19:16:37;24.50;81.90
15409;DHT22;7803;48.130;13.788;2023-04-28T19:19:40;24.50;80.50
15409;DHT22;7803;48.130;13.788;2023-04-28T19:22:43;24.50;79.80